»·PEaware :: AWE2180 KABQ-KPHX

AWE2180 :: KABQ-KPHX

FLIGHT INFORMATION

Flight Status: Arrived
Operator:
US Airways
More flights by this operator :: More flights under this callsign
Pilot: Jim M. (18055)
Aircraft: BOEING 737-200
(B732)
More flights by this aircraft type
Origin: KABQ Albuquerque Intl Sunport
United States
Destination: KPHX Phoenix Sky Harbor Intl
United States
More flights between these airports :: More routes between these airports
Route: LARGO3 ZUN BUNRT3
File this flight plan on PilotEdge
Remarks:
Altitude:
(Current/Filed)
28,000ft
Speed:
(Current/Filed)
450kts
Departed: 29-Apr-18 11:22 AM
Arrived: 29-Apr-18 12:15 PM
Distance/Time
Traveled:
284nm/0:53
Distance/Time
To Go:
Arrived

Flight Plot

Page will automatically refresh every two minutes.

Flight plan parsing failed; only flown route is shown


Map Options




Map Legend


Flown Route
Filed Route
Departure Airport
Arrival Airport
Navaid (VOR, NDB)
Fix

Horizontal Profiles

Position Reports

Time Latitude Longitude Heading Altitude Ground
Speed
29-Apr-18 10:43 35.047896 -106.618153 0 5309ft 0kts
29-Apr-18 10:44 35.047896 -106.618153 174 5309ft 0kts
29-Apr-18 10:45 35.047896 -106.618153 174 5309ft 0kts
29-Apr-18 10:46 35.047896 -106.618153 174 5309ft 0kts
29-Apr-18 10:47 35.047896 -106.618153 174 5309ft 0kts
29-Apr-18 10:48 35.047896 -106.618153 174 5309ft 0kts
29-Apr-18 10:49 35.047896 -106.618153 174 5309ft 0kts
29-Apr-18 10:50 35.047896 -106.618153 174 5309ft 0kts
29-Apr-18 10:51 35.047896 -106.618153 174 5309ft 0kts
29-Apr-18 10:52 35.047896 -106.618153 174 5309ft 0kts
29-Apr-18 10:53 35.047896 -106.618153 174 5309ft 0kts
29-Apr-18 10:54 35.047896 -106.618153 174 5309ft 0kts
29-Apr-18 10:55 35.047896 -106.618153 174 5309ft 0kts
29-Apr-18 10:56 35.047896 -106.618153 174 5309ft 0kts
29-Apr-18 10:57 35.047896 -106.618153 174 5309ft 0kts
29-Apr-18 10:58 35.047896 -106.618153 174 5309ft 0kts
29-Apr-18 10:59 35.047896 -106.618153 174 5309ft 0kts
29-Apr-18 11:00 35.047896 -106.618153 174 5309ft 0kts
29-Apr-18 11:01 35.047896 -106.618153 174 5309ft 0kts
29-Apr-18 11:02 35.047896 -106.618153 174 5309ft 0kts
29-Apr-18 11:03 35.047896 -106.618153 174 5309ft 0kts
29-Apr-18 11:04 35.047896 -106.618153 174 5309ft 0kts
29-Apr-18 11:05 35.047896 -106.618153 174 5309ft 0kts
29-Apr-18 11:06 35.047994 -106.618165 174 5309ft 2kts
29-Apr-18 11:07 35.048295 -106.617877 263 5308ft 0kts
29-Apr-18 11:08 35.048295 -106.617878 263 5308ft 0kts
29-Apr-18 11:09 35.048295 -106.617878 263 5308ft 0kts
29-Apr-18 11:10 35.048295 -106.617878 263 5308ft 0kts
29-Apr-18 11:11 35.048295 -106.617878 263 5308ft 0kts
29-Apr-18 11:12 35.047780 -106.619513 181 5307ft 2kts
29-Apr-18 11:13 35.047744 -106.619514 181 5307ft 0kts
29-Apr-18 11:14 35.046359 -106.619589 181 5309ft 12kts
29-Apr-18 11:15 35.045587 -106.616765 92 5316ft 9kts
29-Apr-18 11:16 35.044720 -106.613723 180 5317ft 11kts
29-Apr-18 11:17 35.042482 -106.612843 93 5317ft 4kts
29-Apr-18 11:18 35.042456 -106.610200 93 5320ft 9kts
29-Apr-18 11:19 35.042428 -106.608504 88 5320ft 0kts
29-Apr-18 11:20 35.042196 -106.607034 152 5320ft 7kts
29-Apr-18 11:21 35.036300 -106.613595 223 5317ft 110kts
29-Apr-18 11:22 35.005358 -106.658847 232 6688ft 200kts
29-Apr-18 11:23 34.967605 -106.712139 223 9043ft 233kts
29-Apr-18 11:24 34.942141 -106.789548 290 10574ft 307kts
29-Apr-18 11:25 34.948796 -106.892254 265 12653ft 330kts
29-Apr-18 11:26 34.947158 -107.006623 268 14642ft 341kts
29-Apr-18 11:27 34.949275 -107.122885 269 16518ft 349kts
29-Apr-18 11:28 34.951423 -107.241828 269 18230ft 356kts
29-Apr-18 11:29 34.953366 -107.363510 269 19728ft 363kts
29-Apr-18 11:30 34.955154 -107.487524 269 21048ft 369kts
29-Apr-18 11:31 34.956792 -107.613456 269 22220ft 375kts
29-Apr-18 11:32 34.957979 -107.741360 269 23295ft 380kts
29-Apr-18 11:33 34.959322 -107.870780 269 24261ft 385kts
29-Apr-18 11:34 34.960757 -108.001938 269 25117ft 389kts
29-Apr-18 11:35 34.962116 -108.134738 270 25887ft 393kts
29-Apr-18 11:36 34.963220 -108.268100 269 26570ft 397kts
29-Apr-18 11:37 34.964190 -108.400833 269 27734ft 386kts
29-Apr-18 11:38 34.965022 -108.532667 269 28107ft 395kts
29-Apr-18 11:39 34.965628 -108.657839 269 28102ft 406kts
29-Apr-18 11:40 34.964174 -108.796042 268 28099ft 410kts
29-Apr-18 11:41 34.962470 -108.935644 268 28090ft 413kts
29-Apr-18 11:42 34.961086 -109.076003 268 28081ft 416kts
29-Apr-18 11:43 34.949988 -109.214807 242 28084ft 414kts
29-Apr-18 11:44 34.896780 -109.337322 248 28065ft 414kts
29-Apr-18 11:45 34.850962 -109.466092 247 28071ft 416kts
29-Apr-18 11:46 34.803687 -109.595059 247 28072ft 418kts
29-Apr-18 11:47 34.756964 -109.720296 241 28070ft 420kts
29-Apr-18 11:48 34.708627 -109.848483 247 28097ft 420kts
29-Apr-18 11:49 34.660955 -109.978091 246 28110ft 421kts
29-Apr-18 11:50 34.612580 -110.107631 246 28109ft 421kts
29-Apr-18 11:51 34.564066 -110.236616 247 28104ft 420kts
29-Apr-18 11:52 34.517323 -110.366011 247 27636ft 419kts
29-Apr-18 11:53 34.472772 -110.491481 247 25570ft 401kts
29-Apr-18 11:54 34.430669 -110.613464 247 24043ft 386kts
29-Apr-18 11:55 34.382692 -110.725576 248 24071ft 381kts
29-Apr-18 11:56 34.327148 -110.833610 232 23666ft 386kts
29-Apr-18 11:57 34.256981 -110.931183 228 22404ft 380kts
29-Apr-18 11:58 34.186292 -111.023025 227 20536ft 368kts
29-Apr-18 11:59 34.117194 -111.111376 227 18698ft 357kts
29-Apr-18 12:00 34.049644 -111.197282 227 17143ft 348kts
29-Apr-18 12:01 33.982119 -111.282896 227 17137ft 353kts
29-Apr-18 12:02 33.918650 -111.363544 227 17122ft 306kts
29-Apr-18 12:03 33.864003 -111.432848 227 15974ft 284kts
29-Apr-18 12:04 33.807602 -111.506428 227 12014ft 289kts
29-Apr-18 12:05 33.756358 -111.574598 227 9642ft 257kts
29-Apr-18 12:06 33.709097 -111.637511 227 8024ft 245kts
29-Apr-18 12:07 33.668768 -111.692365 226 7853ft 194kts
29-Apr-18 12:08 33.629584 -111.746964 227 5699ft 240kts
29-Apr-18 12:09 33.587485 -111.806658 227 5015ft 214kts
29-Apr-18 12:10 33.540018 -111.854774 210 3441ft 228kts
29-Apr-18 12:11 33.488092 -111.891635 209 2686ft 203kts
29-Apr-18 12:12 33.446035 -111.926818 227 2260ft 170kts
29-Apr-18 12:13 33.441335 -111.973446 266 1453ft 139kts
29-Apr-18 12:14 33.440829 -112.008984 269 1130ft 24kts
29-Apr-18 12:15 33.440014 -112.010916 203 1127ft 0kts
29-Apr-18 12:16 33.439723 -112.009158 90 1129ft 9kts
29-Apr-18 12:17 33.439722 -112.005729 89 1131ft 13kts
29-Apr-18 12:18 33.439553 -112.000989 126 1132ft 13kts
29-Apr-18 12:19 33.437852 -112.001127 264 1131ft 0kts
29-Apr-18 12:20 33.437844 -112.001320 268 1131ft 0kts
29-Apr-18 12:21 33.437844 -112.001320 268 1131ft 0kts
29-Apr-18 12:22 33.437844 -112.001320 268 1131ft 0kts

Navigation Log

Ident Type
Flight plan parsing failed, navigation log unavailable